createdAt,value
2018-01-11T00:00:31.258Z,7.00
2018-01-11T00:02:59.579Z,7.00
2018-01-11T00:05:27.874Z,6.90
2018-01-11T00:07:56.185Z,6.90
2018-01-11T00:10:25.250Z,6.90
2018-01-11T00:12:54.342Z,6.80
2018-01-11T00:15:22.688Z,6.80
2018-01-11T00:17:51.001Z,6.90
2018-01-11T00:20:19.318Z,6.80
2018-01-11T00:22:47.605Z,6.80
2018-01-11T00:25:15.938Z,6.80
2018-01-11T00:27:44.237Z,6.80
2018-01-11T00:30:12.528Z,6.90
2018-01-11T00:32:41.600Z,6.80
2018-01-11T00:35:10.648Z,6.80
2018-01-11T00:37:38.966Z,6.70
2018-01-11T00:40:07.246Z,6.70
2018-01-11T00:42:35.533Z,6.70
2018-01-11T00:45:03.845Z,6.60
2018-01-11T00:47:32.152Z,6.60
2018-01-11T00:50:01.225Z,6.50
2018-01-11T00:52:30.840Z,6.50
2018-01-11T00:54:59.175Z,6.50
2018-01-11T00:57:27.470Z,6.50
2018-01-11T00:59:55.786Z,6.50
2018-01-11T01:02:24.102Z,6.50
2018-01-11T01:04:53.244Z,6.50
2018-01-11T01:07:21.497Z,6.50
2018-01-11T01:09:49.869Z,6.50
2018-01-11T01:12:18.271Z,6.50
2018-01-11T01:14:46.584Z,6.50
2018-01-11T01:17:15.668Z,6.50
2018-01-11T01:19:44.729Z,6.50
2018-01-11T01:22:13.036Z,6.40
2018-01-11T01:24:41.343Z,6.40
2018-01-11T01:27:09.636Z,6.40
2018-01-11T01:29:37.953Z,6.40
2018-01-11T01:32:07.038Z,6.30
2018-01-11T01:34:35.332Z,6.30
2018-01-11T01:37:03.665Z,6.40
2018-01-11T01:39:31.966Z,6.30
2018-01-11T01:42:00.307Z,6.30
2018-01-11T01:44:28.683Z,6.20
2018-01-11T01:46:56.984Z,6.20
2018-01-11T01:49:25.299Z,6.20
2018-01-11T01:51:53.622Z,6.20
2018-01-11T01:54:21.968Z,6.20
2018-01-11T01:56:50.266Z,6.20
2018-01-11T01:59:19.325Z,6.20
2018-01-11T02:01:48.425Z,6.20
2018-01-11T02:04:17.488Z,6.10
2018-01-11T02:09:25.477Z,6.10
2018-01-11T02:11:53.820Z,6.10
2018-01-11T02:14:22.154Z,6.10
2018-01-11T02:16:50.900Z,6.10
2018-01-11T02:19:20.051Z,6.10
2018-01-11T02:21:48.851Z,6.10
2018-01-11T02:24:18.857Z,6.10
2018-01-11T02:26:48.191Z,6.10
2018-01-11T02:29:16.567Z,6.10
2018-01-11T02:31:44.883Z,6.10
2018-01-11T02:34:13.228Z,6.20
2018-01-11T02:36:42.328Z,6.20
2018-01-11T02:39:11.908Z,6.20
2018-01-11T02:41:41.492Z,6.10
2018-01-11T02:44:10.974Z,6.10
2018-01-11T02:46:39.520Z,6.10
2018-01-11T02:49:09.521Z,6.10
2018-01-11T02:51:39.707Z,6.20
2018-01-11T02:54:08.668Z,6.20
2018-01-11T02:56:37.075Z,6.20
2018-01-11T02:59:05.444Z,6.30
2018-01-11T03:01:33.771Z,6.30
2018-01-11T03:04:02.124Z,6.20
2018-01-11T03:06:30.425Z,6.20
2018-01-11T03:08:58.752Z,6.10
2018-01-11T03:11:27.059Z,6.10
2018-01-11T03:13:55.372Z,6.10
2018-01-11T03:16:24.786Z,6.10
2018-01-11T03:18:53.347Z,6.10
2018-01-11T03:21:28.032Z,6.10
2018-01-11T03:23:56.350Z,6.10
2018-01-11T03:26:24.672Z,6.10
2018-01-11T03:28:52.965Z,6.20
2018-01-11T03:31:22.064Z,6.20
2018-01-11T03:33:50.412Z,6.20
2018-01-11T03:36:18.846Z,6.20
2018-01-11T03:38:48.217Z,6.30
2018-01-11T03:41:17.378Z,6.20
2018-01-11T03:43:45.710Z,6.20
2018-01-11T03:46:14.010Z,6.20
2018-01-11T03:48:42.309Z,6.10
2018-01-11T03:51:10.644Z,6.10
2018-01-11T03:53:39.728Z,6.10
2018-01-11T03:56:08.066Z,6.10
2018-01-11T03:58:36.387Z,6.10
2018-01-11T04:01:04.689Z,6.10
2018-01-11T04:03:32.989Z,6.10
2018-01-11T04:06:01.327Z,6.10
2018-01-11T04:08:29.633Z,6.10
2018-01-11T04:10:59.391Z,6.10
2018-01-11T04:13:27.744Z,6.10
2018-01-11T04:15:56.474Z,6.10
2018-01-11T04:18:25.188Z,6.10
2018-01-11T04:20:53.749Z,6.10
2018-01-11T04:23:22.376Z,6.10
2018-01-11T04:25:50.844Z,6.10
2018-01-11T04:28:19.150Z,6.10
2018-01-11T04:30:47.495Z,6.10
2018-01-11T04:33:15.873Z,6.10
2018-01-11T04:35:45.626Z,6.10
2018-01-11T04:38:19.039Z,6.10
2018-01-11T04:40:47.399Z,6.10
2018-01-11T04:43:15.719Z,6.10
2018-01-11T04:45:44.030Z,6.10
2018-01-11T04:50:46.475Z,6.10
2018-01-11T04:53:14.823Z,6.10
2018-01-11T04:55:53.027Z,6.10
2018-01-11T04:58:21.534Z,6.10
2018-01-11T05:00:52.648Z,6.10
2018-01-11T05:03:20.997Z,6.10
2018-01-11T05:05:49.297Z,6.10
2018-01-11T05:08:17.597Z,6.10
2018-01-11T05:10:45.933Z,6.10
2018-01-11T05:15:50.952Z,6.00
2018-01-11T05:18:19.289Z,6.00
2018-01-11T05:20:47.719Z,6.10
2018-01-11T05:23:16.090Z,6.10
2018-01-11T05:25:45.190Z,6.20
2018-01-11T05:28:13.537Z,6.20
2018-01-11T05:30:41.853Z,6.20
2018-01-11T05:33:10.144Z,6.10
2018-01-11T05:35:38.530Z,6.00
2018-01-11T05:38:06.892Z,6.00
2018-01-11T05:40:35.184Z,6.00
2018-01-11T05:43:03.486Z,6.00
2018-01-11T05:45:31.842Z,6.00
2018-01-11T05:48:00.860Z,6.10
2018-01-11T05:50:29.213Z,6.10
2018-01-11T05:52:57.521Z,6.20
2018-01-11T05:55:25.821Z,6.20
2018-01-11T05:57:54.159Z,6.20
2018-01-11T06:00:22.470Z,6.20
2018-01-11T06:02:51.539Z,6.20
2018-01-11T06:05:19.866Z,6.10
2018-01-11T06:07:48.921Z,6.10
2018-01-11T06:10:17.251Z,6.10
2018-01-11T06:12:45.554Z,6.10
2018-01-11T06:15:14.654Z,6.10
2018-01-11T06:17:42.969Z,6.10
2018-01-11T06:20:12.020Z,6.10
2018-01-11T06:22:40.353Z,6.00
2018-01-11T06:25:08.658Z,6.00
2018-01-11T06:27:37.814Z,6.00
2018-01-11T06:30:06.128Z,6.00
2018-01-11T06:32:34.488Z,6.00
2018-01-11T06:35:02.785Z,6.00
2018-01-11T06:37:31.120Z,6.00
2018-01-11T06:39:59.419Z,6.00
2018-01-11T06:42:28.866Z,6.00
2018-01-11T06:44:57.201Z,6.00
2018-01-11T06:47:26.301Z,6.00
2018-01-11T06:49:54.608Z,6.00
2018-01-11T06:52:22.944Z,6.10
2018-01-11T06:54:51.282Z,6.10
2018-01-11T06:57:19.851Z,6.00
2018-01-11T06:59:48.203Z,5.90
2018-01-11T07:02:16.513Z,5.90
2018-01-11T07:04:45.612Z,5.80
2018-01-11T07:07:13.919Z,5.80
2018-01-11T07:09:42.297Z,5.70
2018-01-11T07:12:11.397Z,5.60
2018-01-11T07:14:39.708Z,5.60
2018-01-11T07:17:08.038Z,5.50
2018-01-11T07:19:36.348Z,5.50
2018-01-11T07:22:04.674Z,5.40
2018-01-11T07:24:32.988Z,5.50
2018-01-11T07:27:01.281Z,5.40
2018-01-11T07:29:31.345Z,5.40
2018-01-11T07:32:00.374Z,5.40
2018-01-11T07:34:28.809Z,5.40
2018-01-11T07:36:59.433Z,5.50
2018-01-11T07:39:29.425Z,5.50
2018-01-11T07:41:58.801Z,5.50
2018-01-11T07:44:27.141Z,5.50
2018-01-11T07:46:56.204Z,5.60
2018-01-11T07:49:25.795Z,5.60
2018-01-11T07:51:54.125Z,5.60
2018-01-11T07:54:23.192Z,5.70
2018-01-11T07:56:51.508Z,5.70
2018-01-11T07:59:19.855Z,5.70
2018-01-11T08:01:48.216Z,5.80
2018-01-11T08:04:16.549Z,5.80
2018-01-11T08:06:44.852Z,5.80
2018-01-11T08:09:13.962Z,5.80
2018-01-11T08:11:42.271Z,5.80
2018-01-11T08:14:10.581Z,5.90
2018-01-11T08:16:38.925Z,6.00
2018-01-11T08:19:07.254Z,6.00
2018-01-11T08:21:35.545Z,6.00
2018-01-11T08:24:03.865Z,6.00
2018-01-11T08:26:32.168Z,6.00
2018-01-11T08:29:01.238Z,6.10
2018-01-11T08:31:30.102Z,6.10
2018-01-11T08:33:59.171Z,6.10
2018-01-11T08:36:27.477Z,6.10
2018-01-11T08:38:55.814Z,6.10
2018-01-11T08:41:24.103Z,6.20
2018-01-11T08:43:53.215Z,6.30
2018-01-11T08:46:21.539Z,6.20
2018-01-11T08:48:50.617Z,6.30
2018-01-11T08:51:18.957Z,6.30
2018-01-11T08:53:47.258Z,6.30
2018-01-11T08:56:15.556Z,6.30
2018-01-11T08:58:43.888Z,6.20
2018-01-11T09:01:17.857Z,6.30
2018-01-11T09:03:46.187Z,6.30
2018-01-11T09:06:14.543Z,6.30
2018-01-11T09:08:43.638Z,6.30
2018-01-11T09:11:12.740Z,6.30
2018-01-11T09:13:41.674Z,6.30
2018-01-11T09:16:11.014Z,6.30
2018-01-11T09:18:39.361Z,6.30
2018-01-11T09:21:07.759Z,6.30
2018-01-11T09:23:36.206Z,6.30
2018-01-11T09:26:05.302Z,6.40
2018-01-11T09:28:33.650Z,6.40
2018-01-11T09:31:02.086Z,6.40
2018-01-11T09:33:30.480Z,6.40
2018-01-11T09:35:58.785Z,6.50
2018-01-11T09:38:28.707Z,6.40
2018-01-11T09:40:57.069Z,6.50
2018-01-11T09:43:26.280Z,6.50
2018-01-11T09:45:54.605Z,6.50
2018-01-11T09:48:22.981Z,6.50
2018-01-11T09:50:51.354Z,6.50
2018-01-11T09:53:19.695Z,6.60
2018-01-11T09:55:48.047Z,6.60
2018-01-11T09:58:16.377Z,6.60
2018-01-11T10:00:44.673Z,6.60
2018-01-11T10:03:13.871Z,6.60
2018-01-11T10:05:42.536Z,6.60
2018-01-11T10:08:10.838Z,6.60
2018-01-11T10:10:39.139Z,6.70
2018-01-11T10:13:07.452Z,6.70
2018-01-11T10:15:35.742Z,6.70
2018-01-11T10:18:04.150Z,6.70
2018-01-11T10:20:32.436Z,6.70
2018-01-11T10:23:00.754Z,6.70
2018-01-11T10:25:30.463Z,6.70
2018-01-11T10:27:59.477Z,6.70
2018-01-11T10:30:28.416Z,6.70
2018-01-11T10:32:56.728Z,6.70
2018-01-11T10:35:25.061Z,6.70
2018-01-11T10:37:54.307Z,6.70
2018-01-11T10:40:23.396Z,6.70
2018-01-11T10:42:51.701Z,6.70
2018-01-11T10:45:20.012Z,6.70
2018-01-11T10:47:48.298Z,6.70
2018-01-11T10:50:16.630Z,6.70
2018-01-11T10:52:44.934Z,6.80
2018-01-11T10:55:13.253Z,6.80
2018-01-11T10:57:41.551Z,6.90
2018-01-11T11:00:09.905Z,6.80
2018-01-11T11:02:43.806Z,6.90
2018-01-11T11:05:12.133Z,6.90
2018-01-11T11:07:40.427Z,6.90
2018-01-11T11:10:08.715Z,6.90
2018-01-11T11:12:37.841Z,6.90
2018-01-11T11:15:06.177Z,6.90
2018-01-11T11:17:34.519Z,6.90
2018-01-11T11:20:03.724Z,6.90
2018-01-11T11:22:32.042Z,6.90
2018-01-11T11:25:00.376Z,6.90
2018-01-11T11:27:28.753Z,6.90
2018-01-11T11:29:57.072Z,6.90
2018-01-11T11:32:25.432Z,6.90
2018-01-11T11:34:53.760Z,7.00
2018-01-11T11:37:22.072Z,6.90
2018-01-11T11:39:50.404Z,7.00
2018-01-11T11:42:19.527Z,7.10
2018-01-11T11:44:47.844Z,7.00
2018-01-11T11:47:16.897Z,7.20
2018-01-11T11:49:45.172Z,7.20
2018-01-11T11:52:13.489Z,7.30
2018-01-11T11:54:41.792Z,7.40
2018-01-11T11:57:10.129Z,7.70
2018-01-11T11:59:39.217Z,7.80
2018-01-11T12:02:09.590Z,7.80
2018-01-11T12:04:37.906Z,7.90
2018-01-11T12:07:06.990Z,7.70
2018-01-11T12:09:35.383Z,7.70
2018-01-11T12:12:03.812Z,7.70
2018-01-11T12:14:38.862Z,7.60
2018-01-11T12:17:07.206Z,7.60
2018-01-11T12:19:35.613Z,7.60
2018-01-11T12:22:03.907Z,7.50
2018-01-11T12:24:32.234Z,7.50
2018-01-11T12:27:00.550Z,7.60
2018-01-11T12:29:28.864Z,7.60
2018-01-11T12:31:57.208Z,7.60
2018-01-11T12:34:25.539Z,7.60
2018-01-11T12:36:53.928Z,7.60
2018-01-11T12:39:22.231Z,7.60
2018-01-11T12:41:50.538Z,7.60
2018-01-11T12:44:18.892Z,7.60
2018-01-11T12:46:47.252Z,7.60
2018-01-11T12:49:15.567Z,7.60
2018-01-11T12:51:43.867Z,7.50
2018-01-11T12:54:12.324Z,7.50
2018-01-11T12:56:40.651Z,7.50
2018-01-11T12:59:08.976Z,7.40
2018-01-11T13:01:37.303Z,7.40
2018-01-11T13:04:06.594Z,7.50
2018-01-11T13:06:34.899Z,7.50
2018-01-11T13:09:03.203Z,7.40
2018-01-11T13:11:31.539Z,7.40
2018-01-11T13:13:59.840Z,7.30
2018-01-11T13:16:28.132Z,7.40
2018-01-11T13:18:56.451Z,7.40
2018-01-11T13:21:24.795Z,7.40
2018-01-11T13:23:53.128Z,7.40
2018-01-11T13:26:21.468Z,7.30
2018-01-11T13:28:49.829Z,7.30
2018-01-11T13:31:18.257Z,7.30
2018-01-11T13:33:47.344Z,7.20
2018-01-11T13:36:15.696Z,7.20
2018-01-11T13:38:44.769Z,7.20
2018-01-11T13:41:13.107Z,7.10
2018-01-11T13:43:41.400Z,7.20
2018-01-11T13:46:09.717Z,7.20
2018-01-11T13:48:38.808Z,7.20
2018-01-11T13:51:07.189Z,7.20
2018-01-11T13:53:35.488Z,7.10
2018-01-11T13:56:03.849Z,7.20
2018-01-11T13:58:32.136Z,7.20
2018-01-11T14:01:00.435Z,7.20
2018-01-11T14:03:28.753Z,7.10
2018-01-11T14:05:57.044Z,7.10
2018-01-11T14:08:25.400Z,7.10
2018-01-11T14:10:54.469Z,7.10
2018-01-11T14:13:22.781Z,7.00
2018-01-11T14:15:51.122Z,7.10
2018-01-11T14:18:19.432Z,7.10
2018-01-11T14:20:47.820Z,7.00
2018-01-11T14:23:16.133Z,7.00
2018-01-11T14:25:44.441Z,6.90
2018-01-11T14:28:12.758Z,7.00
2018-01-11T14:30:41.103Z,7.00
2018-01-11T14:33:09.420Z,7.00
2018-01-11T14:35:37.753Z,6.90
2018-01-11T14:38:06.864Z,7.00
2018-01-11T14:40:35.229Z,6.90
2018-01-11T14:43:03.556Z,6.90
2018-01-11T14:45:31.919Z,6.90
2018-01-11T14:48:01.039Z,6.90
2018-01-11T14:50:29.356Z,6.90
2018-01-11T14:52:57.656Z,6.90
2018-01-11T14:55:26.798Z,6.90
2018-01-11T14:57:55.864Z,6.90
2018-01-11T15:00:24.178Z,6.90
2018-01-11T15:02:52.608Z,6.90
2018-01-11T15:05:20.933Z,6.90
2018-01-11T15:07:50.014Z,6.90
2018-01-11T15:10:18.372Z,6.90
2018-01-11T15:12:46.695Z,6.90
2018-01-11T15:15:14.992Z,6.80
2018-01-11T15:17:43.328Z,6.90
2018-01-11T15:20:11.640Z,6.80
2018-01-11T15:22:39.957Z,6.80
2018-01-11T15:25:08.269Z,6.80
2018-01-11T15:27:36.613Z,6.80
2018-01-11T15:30:05.717Z,6.80
2018-01-11T15:32:34.037Z,6.80
2018-01-11T15:35:02.465Z,6.80
2018-01-11T15:37:31.520Z,6.80
2018-01-11T15:39:59.809Z,6.80
2018-01-11T15:42:28.126Z,6.80
2018-01-11T15:44:56.428Z,6.80
2018-01-11T15:47:24.764Z,6.80
2018-01-11T15:49:53.114Z,6.70
2018-01-11T15:52:21.433Z,6.70
2018-01-11T15:54:49.777Z,6.70
2018-01-11T15:57:18.098Z,6.70
2018-01-11T15:59:46.417Z,6.60
2018-01-11T16:02:14.770Z,6.60
2018-01-11T16:04:43.893Z,6.70
2018-01-11T16:07:13.063Z,6.60
2018-01-11T16:09:41.318Z,6.60
2018-01-11T16:12:09.667Z,6.60
2018-01-11T16:14:38.031Z,6.60
2018-01-11T16:17:06.414Z,6.60
2018-01-11T16:19:34.712Z,6.60
2018-01-11T16:22:03.072Z,6.60
2018-01-11T16:24:31.429Z,6.60
2018-01-11T16:26:59.966Z,6.60
2018-01-11T16:29:28.322Z,6.60
2018-01-11T16:31:56.644Z,6.60
2018-01-11T16:34:24.989Z,6.60
2018-01-11T16:36:53.381Z,6.60
2018-01-11T16:39:21.714Z,6.60
2018-01-11T16:41:50.795Z,6.60
2018-01-11T16:44:19.535Z,6.60
2018-01-11T16:46:47.878Z,6.60
2018-01-11T16:49:16.181Z,6.60
2018-01-11T16:51:44.544Z,6.60
2018-01-11T16:54:12.930Z,6.60
2018-01-11T16:56:41.250Z,6.60
2018-01-11T16:59:09.534Z,6.60
2018-01-11T17:01:37.863Z,6.60
2018-01-11T17:04:06.469Z,6.60
2018-01-11T17:06:34.776Z,6.60
2018-01-11T17:09:03.172Z,6.60
2018-01-11T17:11:31.465Z,6.60
2018-01-11T17:13:59.829Z,6.50
2018-01-11T17:16:28.153Z,6.50
2018-01-11T17:18:56.477Z,6.50
2018-01-11T17:21:24.813Z,6.50
2018-01-11T17:23:53.169Z,6.50
2018-01-11T17:26:21.464Z,6.50
2018-01-11T17:28:49.779Z,6.60
2018-01-11T17:31:18.199Z,6.50
2018-01-11T17:33:46.525Z,6.50
2018-01-11T17:36:14.917Z,6.50
2018-01-11T17:38:43.986Z,6.50
2018-01-11T17:41:13.084Z,6.50
2018-01-11T17:43:42.169Z,6.50
2018-01-11T17:46:11.294Z,6.50
2018-01-11T17:48:39.605Z,6.50
2018-01-11T17:51:07.934Z,6.50
2018-01-11T17:53:36.314Z,6.50
2018-01-11T17:56:04.640Z,6.50
2018-01-11T17:58:33.728Z,6.50
2018-01-11T18:01:02.101Z,6.50
2018-01-11T18:03:30.448Z,6.50
2018-01-11T18:05:58.760Z,6.40
2018-01-11T18:08:28.045Z,6.50
2018-01-11T18:10:57.331Z,6.40
2018-01-11T18:13:25.661Z,6.40
2018-01-11T18:15:54.103Z,6.40
2018-01-11T18:18:22.427Z,6.40
2018-01-11T18:20:50.748Z,6.40
2018-01-11T18:23:19.224Z,6.40
2018-01-11T18:25:47.529Z,6.40
2018-01-11T18:28:15.836Z,6.40
2018-01-11T18:30:44.976Z,6.40
2018-01-11T18:33:14.090Z,6.40
2018-01-11T18:35:42.397Z,6.40
2018-01-11T18:38:10.714Z,6.40
2018-01-11T18:40:39.038Z,6.40
2018-01-11T18:43:07.367Z,6.40
2018-01-11T18:45:35.668Z,6.40
2018-01-11T18:48:04.773Z,6.30
2018-01-11T18:50:33.072Z,6.40
2018-01-11T18:53:01.377Z,6.30
2018-01-11T18:55:30.492Z,6.30
2018-01-11T18:57:58.792Z,6.30
2018-01-11T19:00:27.812Z,6.20
2018-01-11T19:02:57.115Z,6.20
2018-01-11T19:05:25.494Z,6.20
2018-01-11T19:07:53.834Z,6.20
2018-01-11T19:10:22.128Z,6.10
2018-01-11T19:12:50.446Z,6.10
2018-01-11T19:15:18.812Z,6.10
2018-01-11T19:17:47.111Z,6.10
2018-01-11T19:20:16.180Z,6.10
2018-01-11T19:22:45.301Z,6.10
2018-01-11T19:25:13.644Z,6.10
2018-01-11T19:27:42.012Z,6.10
2018-01-11T19:30:11.228Z,6.10
2018-01-11T19:32:39.546Z,6.10
2018-01-11T19:35:07.888Z,6.10
2018-01-11T19:37:36.971Z,6.10
2018-01-11T19:40:06.117Z,6.10
2018-01-11T19:42:34.434Z,6.10
2018-01-11T19:45:02.820Z,6.10
2018-01-11T19:47:31.128Z,6.10
2018-01-11T19:50:00.233Z,6.20
2018-01-11T19:52:28.540Z,6.10
2018-01-11T19:54:56.925Z,6.20
2018-01-11T19:57:25.224Z,5.90
2018-01-11T19:59:53.575Z,6.10
2018-01-11T20:02:22.658Z,6.10
2018-01-11T20:04:51.790Z,6.10
2018-01-11T20:07:20.575Z,6.10
2018-01-11T20:09:50.352Z,6.10
2018-01-11T20:12:18.991Z,6.10
2018-01-11T20:14:53.752Z,6.10
2018-01-11T20:17:22.894Z,6.10
2018-01-11T20:19:51.236Z,6.10
2018-01-11T20:22:19.543Z,6.10
2018-01-11T20:24:48.853Z,6.10
2018-01-11T20:27:17.173Z,6.10
2018-01-11T20:29:45.546Z,6.10
2018-01-11T20:32:13.879Z,6.10
2018-01-11T20:34:42.201Z,6.10
2018-01-11T20:37:10.512Z,6.10
2018-01-11T20:39:39.780Z,6.20
2018-01-11T20:42:08.092Z,6.10
2018-01-11T20:44:36.432Z,6.10
2018-01-11T20:47:04.782Z,6.10
2018-01-11T20:49:33.879Z,6.10
2018-01-11T20:52:02.212Z,6.10
2018-01-11T20:54:31.271Z,6.10
2018-01-11T20:56:59.822Z,6.10
2018-01-11T20:59:28.156Z,6.10
2018-01-11T21:01:56.470Z,6.10
2018-01-11T21:04:25.717Z,6.20
2018-01-11T21:06:54.958Z,6.20
2018-01-11T21:09:23.286Z,6.20
2018-01-11T21:11:51.613Z,6.30
2018-01-11T21:14:19.921Z,6.30
2018-01-11T21:16:48.288Z,6.20
2018-01-11T21:19:16.596Z,6.10
2018-01-11T21:21:44.930Z,6.10
2018-01-11T21:24:13.277Z,6.10
2018-01-11T21:26:41.635Z,6.00
2018-01-11T21:29:09.943Z,6.00
2018-01-11T21:31:38.251Z,6.00
2018-01-11T21:34:06.576Z,6.00
2018-01-11T21:36:35.660Z,6.00
2018-01-11T21:39:04.747Z,6.00
2018-01-11T21:41:33.111Z,5.90
2018-01-11T21:44:01.404Z,5.90
2018-01-11T21:46:30.445Z,6.00
2018-01-11T21:48:59.522Z,5.90
2018-01-11T21:51:28.033Z,6.00
2018-01-11T21:53:57.159Z,5.90
2018-01-11T21:56:25.466Z,6.00
2018-01-11T21:58:54.564Z,5.90
2018-01-11T22:01:22.870Z,5.90
2018-01-11T22:03:51.196Z,6.00
2018-01-11T22:06:19.494Z,6.00
2018-01-11T22:08:47.825Z,6.00
2018-01-11T22:11:16.145Z,5.90
2018-01-11T22:13:45.276Z,5.90
2018-01-11T22:16:13.572Z,5.90
2018-01-11T22:18:41.872Z,5.90
2018-01-11T22:21:10.195Z,5.90
2018-01-11T22:23:38.518Z,5.90
2018-01-11T22:26:06.854Z,5.90
2018-01-11T22:28:35.144Z,5.80
2018-01-11T22:31:03.464Z,5.80
2018-01-11T22:33:31.784Z,5.80
2018-01-11T22:36:00.114Z,5.90
2018-01-11T22:38:28.418Z,5.90
2018-01-11T22:40:57.508Z,5.80
2018-01-11T22:43:25.868Z,5.80
2018-01-11T22:45:54.197Z,5.80
2018-01-11T22:48:22.545Z,5.80
2018-01-11T22:50:50.844Z,5.70
2018-01-11T22:53:19.944Z,5.70
2018-01-11T22:55:48.307Z,5.70
2018-01-11T22:58:16.618Z,5.80
2018-01-11T23:00:44.950Z,5.80
2018-01-11T23:03:13.337Z,5.80
2018-01-11T23:05:41.679Z,5.80
2018-01-11T23:08:09.977Z,5.80
2018-01-11T23:10:38.293Z,5.80
2018-01-11T23:13:06.620Z,5.80
2018-01-11T23:15:34.957Z,5.80
2018-01-11T23:18:03.289Z,5.80
2018-01-11T23:20:31.626Z,5.80
2018-01-11T23:22:59.968Z,5.80
2018-01-11T23:25:29.912Z,5.80
2018-01-11T23:27:58.245Z,5.80
2018-01-11T23:30:27.834Z,5.80
2018-01-11T23:32:56.133Z,5.70
2018-01-11T23:35:24.456Z,5.70
2018-01-11T23:37:53.553Z,5.70
2018-01-11T23:40:21.881Z,5.70
2018-01-11T23:42:50.949Z,5.70
2018-01-11T23:45:19.265Z,5.70
2018-01-11T23:47:48.087Z,5.70
2018-01-11T23:50:16.383Z,5.70
2018-01-11T23:52:44.684Z,5.80
2018-01-11T23:55:13.008Z,5.80
2018-01-11T23:57:41.316Z,5.70
